Time;durP1;ratioP1;P1;durP2;ratioP2;P2;SDS_P1;SDS_P2;PMS_P1;PMS_P2;Temp;Humidity;BMP_temperature;BMP_pressure;BME280_temperature;BME280_humidity;BME280_pressure;Samples;Min_cycle;Max_cycle;Signal;HPM_P1;HPM_P2
2021/01/28 00:00:26;;;;;;;8.60;6.70;;;2.80;76.20;;;;;;6098286;23;20031;-80
2021/01/28 00:02:52;;;;;;;7.30;5.72;;;2.80;76.00;;;;;;6096392;23;20014;-82
2021/01/28 00:05:19;;;;;;;7.90;6.15;;;2.80;75.80;;;;;;6096400;23;20009;-80
2021/01/28 00:07:45;;;;;;;6.78;5.65;;;2.90;75.70;;;;;;6095863;23;20006;-82
2021/01/28 00:10:13;;;;;;;7.75;5.93;;;2.90;75.60;;;;;;6096008;23;20097;-80
2021/01/28 00:12:39;;;;;;;7.07;5.20;;;3.00;75.10;;;;;;6101225;23;20391;-82
2021/01/28 00:15:06;;;;;;;6.63;5.38;;;2.90;74.90;;;;;;6127105;23;20512;-82
2021/01/28 00:17:32;;;;;;;7.38;5.50;;;3.00;74.70;;;;;;6100614;23;20471;-80
2021/01/28 00:19:59;;;;;;;7.47;5.43;;;3.00;74.70;;;;;;6127206;23;20002;-82
2021/01/28 00:22:25;;;;;;;7.10;5.63;;;3.20;74.50;;;;;;6127100;23;20065;-82
2021/01/28 00:24:50;;;;;;;9.90;6.28;;;2.80;73.90;;;;;;6127452;23;20006;-83
2021/01/28 00:27:17;;;;;;;7.45;6.18;;;2.80;76.10;;;;;;6100609;23;20018;-82
2021/01/28 00:29:45;;;;;;;10.70;6.10;;;3.00;75.90;;;;;;6127768;23;20001;-86
2021/01/28 00:32:23;;;;;;;8.15;5.90;;;2.90;75.00;;;;;;6101371;23;20110;-81
2021/01/28 00:34:50;;;;;;;8.50;6.70;;;3.00;75.50;;;;;;6101000;23;20022;-82
2021/01/28 00:37:32;;;;;;;8.50;5.70;;;3.10;75.10;;;;;;6126004;23;20036;-80
2021/01/28 00:39:59;;;;;;;8.25;6.28;;;3.10;73.80;;;;;;6101272;23;20336;-82
2021/01/28 00:42:31;;;;;;;8.10;6.40;;;3.20;73.30;;;;;;6126602;23;20013;-86
2021/01/28 00:44:57;;;;;;;7.55;5.97;;;3.20;73.20;;;;;;6100690;23;20014;-82
2021/01/28 00:47:24;;;;;;;8.52;5.97;;;3.00;73.00;;;;;;6126678;23;20006;-82
2021/01/28 00:49:49;;;;;;;9.07;6.55;;;3.00;73.20;;;;;;6128213;23;19998;-82
2021/01/28 00:52:21;;;;;;;8.85;5.93;;;3.00;73.60;;;;;;6128111;23;20010;-83
2021/01/28 00:54:47;;;;;;;7.47;6.45;;;2.90;73.20;;;;;;6101759;23;20018;-88
2021/01/28 00:57:13;;;;;;;7.78;5.75;;;2.90;73.60;;;;;;6101075;23;20085;-84
2021/01/28 00:59:38;;;;;;;7.95;6.05;;;2.80;74.10;;;;;;6126952;23;20010;-87
2021/01/28 01:02:04;;;;;;;9.52;6.10;;;2.70;74.60;;;;;;6126455;23;19998;-83
2021/01/28 01:04:30;;;;;;;6.60;5.68;;;2.70;75.00;;;;;;6126866;23;20346;-83
2021/01/28 01:06:57;;;;;;;7.43;5.75;;;2.90;74.90;;;;;;6127763;23;20483;-84
2021/01/28 01:09:27;;;;;;;8.05;6.00;;;2.70;74.70;;;;;;6101172;23;20093;-82
2021/01/28 01:11:54;;;;;;;8.65;6.28;;;2.60;76.50;;;;;;6100342;23;20041;-81
2021/01/28 01:14:20;;;;;;;8.40;5.75;;;2.20;78.00;;;;;;6100714;23;20096;-83
2021/01/28 01:16:46;;;;;;;7.90;6.10;;;2.40;79.80;;;;;;6103602;23;20006;-83
2021/01/28 01:19:12;;;;;;;8.63;6.22;;;2.50;79.80;;;;;;6128650;23;19998;-86
2021/01/28 01:21:38;;;;;;;8.40;6.22;;;2.50;80.50;;;;;;6101299;23;20122;-84
2021/01/28 01:24:05;;;;;;;9.23;6.22;;;2.70;80.00;;;;;;6100821;23;20017;-80
2021/01/28 01:26:31;;;;;;;8.00;6.18;;;2.70;80.00;;;;;;6127046;23;20073;-82
2021/01/28 01:28:56;;;;;;;6.28;5.38;;;2.70;79.90;;;;;;6126635;23;20018;-81
2021/01/28 01:31:23;;;;;;;8.77;5.90;;;2.70;80.60;;;;;;6100891;23;20006;-80
2021/01/28 01:33:49;;;;;;;7.28;5.57;;;2.70;80.30;;;;;;6127251;23;20041;-82
2021/01/28 01:36:15;;;;;;;6.82;5.57;;;2.70;80.30;;;;;;6127081;23;20432;-82
2021/01/28 01:38:41;;;;;;;7.40;5.53;;;2.60;80.30;;;;;;6127602;23;20002;-81
2021/01/28 01:41:48;;;;;;;7.63;5.78;;;2.80;80.40;;;;;;6101009;23;20617;-85
2021/01/28 01:44:16;;;;;;;7.45;5.30;;;2.70;79.50;;;;;;6126008;23;20317;-83
2021/01/28 01:46:42;;;;;;;7.28;5.50;;;2.80;79.90;;;;;;6100366;23;20006;-82
2021/01/28 01:49:12;;;;;;;6.35;4.90;;;2.70;79.70;;;;;;6126705;23;20009;-83
2021/01/28 01:52:08;;;;;;;7.05;5.18;;;2.50;79.80;;;;;;6100773;23;20037;-80
2021/01/28 01:54:36;;;;;;;5.97;5.22;;;2.60;81.20;;;;;;6125249;23;20101;-83
2021/01/28 01:57:06;;;;;;;7.28;5.45;;;2.40;81.00;;;;;;6127670;23;20006;-80
2021/01/28 01:59:38;;;;;;;7.18;5.60;;;2.50;81.90;;;;;;6102899;23;20002;-78
2021/01/28 02:02:18;;;;;;;5.85;5.25;;;2.30;82.10;;;;;;6102924;23;20009;-86
2021/01/28 02:04:47;;;;;;;6.55;5.07;;;2.10;82.20;;;;;;6128429;23;20010;-82
2021/01/28 02:07:22;;;;;;;6.50;5.35;;;2.00;84.10;;;;;;6128414;23;20125;-78
2021/01/28 02:09:49;;;;;;;7.15;5.47;;;2.40;83.50;;;;;;6102126;23;20014;-81
2021/01/28 02:12:16;;;;;;;6.97;4.97;;;2.60;82.90;;;;;;6128035;23;20013;-81
2021/01/28 02:14:42;;;;;;;6.80;5.38;;;2.80;82.30;;;;;;6127734;23;20069;-80
2021/01/28 02:17:23;;;;;;;6.55;5.05;;;2.80;81.30;;;;;;6128097;23;20560;-82
2021/01/28 02:19:52;;;;;;;8.77;6.25;;;2.90;81.10;;;;;;6102035;23;20018;-82
2021/01/28 02:22:23;;;;;;;7.50;5.80;;;2.60;83.40;;;;;;6103279;23;20013;-85
2021/01/28 02:24:54;;;;;;;8.13;5.90;;;2.70;83.10;;;;;;6101679;23;20002;-84
2021/01/28 02:27:20;;;;;;;7.47;5.72;;;2.50;83.90;;;;;;6128390;23;20034;-80
2021/01/28 02:29:47;;;;;;;7.80;6.07;;;2.40;86.30;;;;;;6127822;23;20309;-80
2021/01/28 02:32:13;;;;;;;7.55;5.75;;;2.60;85.30;;;;;;6102134;23;20101;-79
2021/01/28 02:34:43;;;;;;;7.80;5.72;;;2.60;84.10;;;;;;6128202;23;20112;-85
2021/01/28 02:37:15;;;;;;;9.02;5.95;;;2.60;83.50;;;;;;6127582;23;20021;-84
2021/01/28 02:39:41;;;;;;;8.60;5.65;;;2.60;83.70;;;;;;6127736;23;20010;-83
2021/01/28 02:42:14;;;;;;;8.05;6.18;;;2.70;83.30;;;;;;6128666;23;20013;-83
2021/01/28 02:44:39;;;;;;;6.75;5.85;;;2.60;83.40;;;;;;6127921;23;20061;-78
2021/01/28 02:47:07;;;;;;;8.05;6.55;;;2.60;83.50;;;;;;6127544;23;20002;-81
2021/01/28 02:49:33;;;;;;;9.80;6.68;;;2.60;83.40;;;;;;6127063;23;20017;-77
2021/01/28 02:51:59;;;;;;;9.20;6.65;;;2.70;83.00;;;;;;6127184;23;20006;-79
2021/01/28 02:54:25;;;;;;;8.93;6.45;;;2.80;82.70;;;;;;6100896;23;20076;-80
2021/01/28 02:56:51;;;;;;;8.18;6.20;;;2.70;82.00;;;;;;6127300;23;20002;-79
2021/01/28 02:59:17;;;;;;;8.57;6.68;;;2.60;82.50;;;;;;6101158;23;20340;-79
2021/01/28 03:01:44;;;;;;;7.60;5.72;;;2.60;83.30;;;;;;6101500;23;20017;-80
2021/01/28 03:04:10;;;;;;;7.35;5.80;;;2.60;82.20;;;;;;6126872;23;20116;-78
2021/01/28 03:06:37;;;;;;;7.70;6.25;;;2.60;81.70;;;;;;6101069;23;20017;-79
2021/01/28 03:09:06;;;;;;;8.77;6.45;;;2.60;82.10;;;;;;6127047;23;20025;-80
2021/01/28 03:11:33;;;;;;;7.72;5.80;;;2.60;83.00;;;;;;6126962;23;20009;-81
2021/01/28 03:13:59;;;;;;;7.30;5.78;;;2.60;82.70;;;;;;6100925;23;20101;-80
2021/01/28 03:16:25;;;;;;;8.90;5.82;;;2.60;82.00;;;;;;6126471;23;20029;-79
2021/01/28 03:18:51;;;;;;;6.30;5.18;;;2.60;81.40;;;;;;6101272;23;20002;-81
2021/01/28 03:21:18;;;;;;;8.70;5.78;;;2.70;80.50;;;;;;6127296;23;20002;-83
2021/01/28 03:23:43;;;;;;;7.75;6.00;;;2.70;81.90;;;;;;6101763;23;20491;-82
2021/01/28 03:26:09;;;;;;;6.63;5.38;;;2.60;81.60;;;;;;6127449;23;20001;-82
2021/01/28 03:28:35;;;;;;;6.43;5.38;;;2.70;80.20;;;;;;6127591;23;20024;-79
2021/01/28 03:31:02;;;;;;;7.88;5.32;;;2.70;79.50;;;;;;6101652;23;20012;-81
2021/01/28 03:33:28;;;;;;;7.28;5.80;;;2.60;79.90;;;;;;6127244;23;20069;-81
2021/01/28 03:35:54;;;;;;;12.82;5.97;;;2.70;79.90;;;;;;6102575;23;20009;-82
2021/01/28 03:38:20;;;;;;;6.88;5.50;;;2.80;79.90;;;;;;6102581;23;20006;-86
2021/01/28 03:40:46;;;;;;;6.68;4.97;;;2.80;79.30;;;;;;6100793;23;20006;-85
2021/01/28 03:43:12;;;;;;;9.85;6.03;;;2.80;79.60;;;;;;6128401;23;20085;-81
2021/01/28 03:45:38;;;;;;;8.60;6.07;;;2.70;80.00;;;;;;6128118;23;20029;-86
2021/01/28 03:48:04;;;;;;;7.40;6.00;;;2.60;79.40;;;;;;6128197;23;20005;-84
2021/01/28 03:50:33;;;;;;;6.22;5.32;;;2.60;79.50;;;;;;6102241;23;20089;-80
2021/01/28 03:53:00;;;;;;;6.40;5.50;;;2.60;78.50;;;;;;6101925;23;19998;-86
2021/01/28 03:55:26;;;;;;;6.38;5.68;;;2.80;78.50;;;;;;6128022;23;20017;-80
2021/01/28 03:57:53;;;;;;;7.80;5.50;;;2.80;79.60;;;;;;6128921;23;20362;-86
2021/01/28 04:00:31;;;;;;;7.70;6.00;;;2.70;79.90;;;;;;6102524;23;20034;-84
2021/01/28 04:02:58;;;;;;;9.38;5.75;;;2.50;79.20;;;;;;6128766;23;20037;-79
2021/01/28 04:05:25;;;;;;;7.15;5.80;;;2.50;79.10;;;;;;6127638;23;20053;-81
2021/01/28 04:07:51;;;;;;;8.50;5.90;;;2.50;79.30;;;;;;6127223;23;20002;-83
2021/01/28 04:10:27;;;;;;;7.55;6.20;;;2.70;81.90;;;;;;6101610;23;20053;-80
2021/01/28 04:12:52;;;;;;;9.45;6.45;;;2.70;84.50;;;;;;6126790;23;20018;-80
2021/01/28 04:15:18;;;;;;;8.65;6.43;;;2.40;86.70;;;;;;6101739;23;20017;-83
2021/01/28 04:17:45;;;;;;;10.38;7.22;;;2.60;88.10;;;;;;6101592;23;20317;-81
2021/01/28 04:20:13;;;;;;;10.82;6.82;;;2.50;87.30;;;;;;6100539;23;20086;-81
2021/01/28 04:22:40;;;;;;;9.60;6.95;;;2.30;90.30;;;;;;6126535;23;20006;-83
2021/01/28 04:25:09;;;;;;;9.23;7.35;;;2.30;90.30;;;;;;6127010;23;20010;-80
2021/01/28 04:27:35;;;;;;;9.93;7.60;;;2.40;90.50;;;;;;6127586;23;20002;-81
2021/01/28 04:30:03;;;;;;;8.73;7.38;;;2.50;90.00;;;;;;6127346;23;20002;-81
2021/01/28 04:32:28;;;;;;;9.77;6.82;;;2.50;90.10;;;;;;6100679;23;20010;-81
2021/01/28 04:34:54;;;;;;;11.88;7.05;;;2.70;89.60;;;;;;6127113;23;20552;-82
2021/01/28 04:37:21;;;;;;;11.90;7.60;;;2.60;88.40;;;;;;6126808;23;20001;-84
2021/01/28 04:39:50;;;;;;;11.25;7.72;;;2.40;88.10;;;;;;6101837;23;20010;-86
2021/01/28 04:42:19;;;;;;;8.88;7.28;;;2.40;89.90;;;;;;6128093;23;20352;-84
2021/01/28 04:45:02;;;;;;;11.55;7.40;;;2.50;89.00;;;;;;6101379;23;20375;-81
2021/01/28 04:47:27;;;;;;;10.57;7.28;;;2.50;88.60;;;;;;6126886;23;19994;-84
2021/01/28 04:49:57;;;;;;;9.38;6.82;;;2.50;87.40;;;;;;6126387;23;20012;-79
2021/01/28 04:52:25;;;;;;;10.48;6.60;;;2.50;87.10;;;;;;6125360;23;19998;-80
2021/01/28 04:54:54;;;;;;;10.95;7.70;;;2.50;87.80;;;;;;6126107;23;20014;-80
2021/01/28 04:57:21;;;;;;;10.13;7.57;;;2.50;89.60;;;;;;6099738;23;20018;-79
2021/01/28 04:59:53;;;;;;;9.75;8.00;;;2.50;91.20;;;;;;6100162;23;20010;-80
2021/01/28 05:02:29;;;;;;;11.35;8.25;;;2.50;92.10;;;;;;6125925;23;20337;-80
2021/01/28 05:04:58;;;;;;;12.80;7.47;;;2.50;92.60;;;;;;6100661;23;20436;-82
2021/01/28 05:07:31;;;;;;;14.75;8.63;;;2.60;93.10;;;;;;6126231;23;19998;-80
2021/01/28 05:10:34;;;;;;;13.98;8.25;;;2.40;93.40;;;;;;6100810;23;20048;-80
2021/01/28 05:13:00;;;;;;;12.35;8.60;;;2.30;94.50;;;;;;6125966;23;20032;-80
2021/01/28 05:15:33;;;;;;;12.05;7.38;;;2.40;94.00;;;;;;6126581;23;20012;-80
2021/01/28 05:18:03;;;;;;;12.52;8.20;;;2.60;93.40;;;;;;6099832;23;20006;-82
2021/01/28 05:20:30;;;;;;;;;;;2.60;93.10;;;;;;6125890;23;20065;-79
2021/01/28 05:23:09;;;;;;;12.13;8.82;;;2.50;93.50;;;;;;6100134;23;19984;-82
2021/01/28 05:25:41;;;;;;;9.90;7.68;;;2.50;94.40;;;;;;6100621;23;20021;-83
2021/01/28 05:28:38;;;;;;;14.48;8.55;;;2.40;93.40;;;;;;6101546;23;20014;-82
2021/01/28 05:31:16;;;;;;;12.18;8.93;;;2.50;94.00;;;;;;6101391;23;20055;-83
2021/01/28 05:33:45;;;;;;;11.98;8.70;;;2.30;96.10;;;;;;6105011;23;20348;-79
2021/01/28 05:36:13;;;;;;;11.73;8.63;;;2.30;97.30;;;;;;6128077;23;20352;-78
2021/01/28 05:38:54;;;;;;;13.13;7.93;;;2.10;98.10;;;;;;6100887;23;20016;-80
2021/01/28 05:42:03;;;;;;;10.18;7.55;;;2.30;98.00;;;;;;6100003;23;20012;-80
2021/01/28 05:44:32;;;;;;;12.68;7.82;;;2.20;97.80;;;;;;6059044;23;20486;-82
2021/01/28 05:47:02;;;;;;;12.27;8.32;;;2.30;97.40;;;;;;6127003;23;20404;-84
2021/01/28 05:49:27;;;;;;;14.88;8.57;;;2.30;96.90;;;;;;6102727;23;20026;-83
2021/01/28 05:55:17;;;;;;;13.57;8.23;;;2.20;96.80;;;;;;6127701;23;20077;-84
2021/01/28 05:58:11;;;;;;;12.43;8.43;;;2.40;96.60;;;;;;6128274;23;20016;-82
2021/01/28 06:01:05;;;;;;;12.73;8.13;;;2.50;96.40;;;;;;6127553;23;20010;-80
2021/01/28 06:03:30;;;;;;;9.90;8.00;;;2.30;96.20;;;;;;6125320;23;20002;-82
2021/01/28 06:05:56;;;;;;;15.77;8.70;;;2.10;95.80;;;;;;6100789;23;20313;-83
2021/01/28 06:08:46;;;;;;;17.02;8.60;;;1.80;97.80;;;;;;6101881;23;20002;-83
2021/01/28 06:11:18;;;;;;;13.02;9.18;;;2.10;98.00;;;;;;6127402;23;20009;-85
2021/01/28 06:13:58;;;;;;;12.18;7.93;;;2.00;97.50;;;;;;6099348;23;20049;-82
2021/01/28 06:16:49;;;;;;;76.00;36.17;;;2.30;99.90;;;;;;6099745;23;20006;-82
2021/01/28 06:19:32;;;;;;;44.35;24.70;;;2.80;99.40;;;;;;6124245;23;20424;-83
2021/01/28 06:22:02;;;;;;;28.58;17.23;;;2.70;98.20;;;;;;6125104;23;20495;-79
2021/01/28 06:24:54;;;;;;;18.60;10.43;;;2.30;99.00;;;;;;6125705;23;20002;-80
2021/01/28 06:27:45;;;;;;;13.75;9.20;;;2.00;99.20;;;;;;6125153;23;20013;-79
2021/01/28 06:30:25;;;;;;;15.85;9.73;;;2.00;99.40;;;;;;6125611;23;20044;-84
2021/01/28 06:33:03;;;;;;;13.88;9.85;;;2.10;99.50;;;;;;6099249;23;20085;-83
2021/01/28 06:35:31;;;;;;;15.60;10.27;;;2.00;99.90;;;;;;6099927;23;20041;-80
2021/01/28 06:38:19;;;;;;;16.67;9.82;;;2.10;99.90;;;;;;6100405;23;20014;-84
2021/01/28 06:40:50;;;;;;;18.88;10.25;;;2.10;99.30;;;;;;6120926;23;20052;-84
2021/01/28 06:43:23;;;;;;;18.38;10.02;;;2.10;98.60;;;;;;6099325;23;20014;-80
2021/01/28 06:46:00;;;;;;;16.13;10.18;;;1.80;98.60;;;;;;6128003;23;20042;-81
2021/01/28 06:48:35;;;;;;;15.63;10.38;;;1.90;99.30;;;;;;6103637;23;20006;-83
2021/01/28 06:51:26;;;;;;;16.95;10.75;;;1.80;99.20;;;;;;6128885;23;20089;-87
2021/01/28 06:53:59;;;;;;;12.82;9.70;;;1.80;99.90;;;;;;6131098;23;20072;-82
2021/01/28 06:56:43;;;;;;;16.90;10.23;;;2.00;99.70;;;;;;6130774;23;20080;-83
2021/01/28 06:59:21;;;;;;;20.83;10.73;;;2.20;99.20;;;;;;6100190;23;20041;-82
2021/01/28 07:02:01;;;;;;;17.75;9.73;;;2.20;99.30;;;;;;6102807;23;20014;-82
2021/01/28 07:04:53;;;;;;;15.60;10.25;;;2.40;98.50;;;;;;6129461;23;20006;-81
2021/01/28 07:07:24;;;;;;;13.70;9.18;;;1.70;99.90;;;;;;6104320;23;20010;-85
2021/01/28 07:10:01;;;;;;;13.63;9.00;;;1.80;99.50;;;;;;6103319;23;20010;-82
2021/01/28 07:12:49;;;;;;;14.10;8.77;;;2.00;98.50;;;;;;6128873;23;20077;-82
2021/01/28 07:15:17;;;;;;;12.90;9.10;;;2.10;97.20;;;;;;6128558;23;20516;-82
2021/01/28 07:17:49;;;;;;;16.17;9.80;;;2.20;97.10;;;;;;6127743;23;20006;-84
2021/01/28 07:20:40;;;;;;;14.88;10.27;;;2.20;97.00;;;;;;6103880;23;20010;-82
2021/01/28 07:23:15;;;;;;;;;;;2.40;96.60;;;;;;6128038;23;20002;-82
2021/01/28 07:25:47;;;;;;;13.85;10.23;;;2.50;96.00;;;;;;6103277;23;19901;-83
2021/01/28 07:28:18;;;;;;;14.35;9.90;;;2.60;95.20;;;;;;6129210;23;20077;-82
2021/01/28 07:30:49;;;;;;;16.23;10.15;;;2.80;95.50;;;;;;6102760;23;20036;-85
2021/01/28 07:33:40;;;;;;;18.10;11.07;;;3.20;95.00;;;;;;6130240;23;20006;-83
2021/01/28 07:36:24;;;;;;;21.25;13.55;;;3.50;94.30;;;;;;6102541;23;20064;-82
2021/01/28 07:39:25;;;;;;;48.10;26.08;;;5.30;99.90;;;;;;6128220;23;20017;-86
2021/01/28 07:42:32;;;;;;;210.93;91.07;;;6.30;96.40;;;;;;6098651;23;20037;-80
2021/01/28 07:45:28;;;;;;;23.92;16.25;;;6.20;80.10;;;;;;6018836;23;20071;-90
2021/01/28 07:47:59;;;;;;;21.05;12.68;;;4.50;83.40;;;;;;6019682;23;20007;-87
2021/01/28 07:50:34;;;;;;;19.00;12.45;;;3.90;88.50;;;;;;5992452;23;20022;-85
2021/01/28 07:53:35;;;;;;;18.55;12.35;;;3.60;91.10;;;;;;5993119;23;20616;-86
2021/01/28 07:56:04;;;;;;;21.48;12.98;;;3.70;91.90;;;;;;6077291;23;20033;-80
2021/01/28 07:58:36;;;;;;;19.20;11.63;;;4.00;91.30;;;;;;6102082;23;20006;-83
2021/01/28 08:01:16;;;;;;;18.52;12.15;;;4.40;90.70;;;;;;6125230;23;19998;-81
2021/01/28 08:04:33;;;;;;;18.85;11.25;;;4.80;87.10;;;;;;6099339;23;20085;-81
2021/01/28 08:07:05;;;;;;;21.33;12.75;;;5.00;84.90;;;;;;6034896;23;20021;-80
2021/01/28 08:09:31;;;;;;;17.88;10.73;;;5.30;82.00;;;;;;6102854;23;20423;-84
2021/01/28 08:11:58;;;;;;;17.23;10.23;;;5.60;77.50;;;;;;6082550;23;20133;-84
2021/01/28 08:14:29;;;;;;;10.30;7.57;;;5.70;74.70;;;;;;6128924;23;20065;-88
2021/01/28 08:16:57;;;;;;;14.65;9.68;;;5.70;63.40;;;;;;6100641;23;20029;-80
2021/01/28 08:19:26;;;;;;;15.30;9.07;;;6.00;63.30;;;;;;6100291;23;20088;-79
2021/01/28 08:22:15;;;;;;;9.82;6.97;;;6.10;61.80;;;;;;6101409;23;20096;-82
2021/01/28 08:24:52;;;;;;;9.77;6.85;;;5.80;59.60;;;;;;6098881;23;20010;-81
2021/01/28 08:27:21;;;;;;;11.90;8.02;;;6.30;59.20;;;;;;6128404;23;20459;-80
2021/01/28 08:30:15;;;;;;;8.95;6.68;;;6.40;56.50;;;;;;6100803;23;20391;-81
2021/01/28 08:32:44;;;;;;;7.35;5.50;;;6.60;56.40;;;;;;6093553;23;20081;-84
2021/01/28 08:35:51;;;;;;;8.95;5.70;;;7.00;54.20;;;;;;6100045;23;20010;-80
2021/01/28 08:38:30;;;;;;;6.95;5.15;;;7.30;53.10;;;;;;6092879;23;20005;-84
2021/01/28 08:41:20;;;;;;;7.18;5.57;;;7.60;51.20;;;;;;6101828;23;20301;-82
2021/01/28 08:43:57;;;;;;;9.68;6.15;;;7.40;50.20;;;;;;6101919;23;20018;-82
2021/01/28 08:46:24;;;;;;;8.68;5.90;;;7.70;50.40;;;;;;6127481;23;20081;-82
2021/01/28 08:49:00;;;;;;;7.63;5.70;;;7.90;50.20;;;;;;6100766;23;20432;-83
2021/01/28 08:51:27;;;;;;;7.95;6.35;;;8.20;49.90;;;;;;6128736;23;20436;-81
2021/01/28 08:54:01;;;;;;;10.27;6.55;;;8.30;50.10;;;;;;6099934;23;20057;-82
2021/01/28 08:56:39;;;;;;;8.00;6.20;;;8.60;50.10;;;;;;6098713;23;20195;-78
2021/01/28 08:59:12;;;;;;;7.10;5.10;;;8.60;50.20;;;;;;6099080;23;20328;-78
2021/01/28 09:01:59;;;;;;;10.02;5.68;;;8.30;48.20;;;;;;6100829;23;20100;-92
2021/01/28 09:04:40;;;;;;;8.88;5.78;;;7.70;47.90;;;;;;6103702;23;20013;-82
2021/01/28 09:07:09;;;;;;;10.63;6.15;;;6.40;51.30;;;;;;6099312;23;20107;-79
2021/01/28 09:09:36;;;;;;;7.25;5.20;;;6.70;50.90;;;;;;6077942;23;20020;-81
2021/01/28 09:12:31;;;;;;;6.53;4.55;;;6.70;49.80;;;;;;6130250;23;20014;-85
2021/01/28 09:15:21;;;;;;;6.82;4.65;;;6.80;49.00;;;;;;6099137;23;20022;-80
2021/01/28 09:17:53;;;;;;;9.82;5.07;;;6.50;47.80;;;;;;6093642;23;20011;-79
2021/01/28 09:20:35;;;;;;;5.45;4.07;;;6.20;47.80;;;;;;6092114;23;20010;-82
2021/01/28 09:23:18;;;;;;;5.78;4.30;;;6.30;46.80;;;;;;6069648;23;20010;-83
2021/01/28 09:25:45;;;;;;;5.47;4.15;;;7.30;45.40;;;;;;6096247;23;20084;-81
2021/01/28 09:28:15;;;;;;;5.60;4.20;;;7.30;44.20;;;;;;6098322;23;20002;-85
2021/01/28 09:30:43;;;;;;;5.38;4.20;;;7.90;44.20;;;;;;6098168;23;20034;-87
2021/01/28 09:33:28;;;;;;;5.70;4.35;;;8.50;43.70;;;;;;6099324;23;20077;-84
2021/01/28 09:36:18;;;;;;;5.45;4.20;;;9.00;42.70;;;;;;6098015;23;20013;-79
2021/01/28 09:39:06;;;;;;;5.70;4.43;;;9.20;42.00;;;;;;6094181;23;20006;-79
2021/01/28 09:42:04;;;;;;;10.65;4.70;;;9.40;42.60;;;;;;6095024;23;20010;-79
2021/01/28 09:44:39;;;;;;;8.38;5.03;;;10.10;42.80;;;;;;6067413;23;20098;-78
2021/01/28 09:50:27;;;;;;;8.07;4.75;;;10.30;41.70;;;;;;6101770;23;20018;-84
2021/01/28 09:52:55;;;;;;;12.07;4.93;;;10.30;41.40;;;;;;6098648;23;20002;-86
2021/01/28 09:55:24;;;;;;;8.50;4.90;;;10.30;42.90;;;;;;6097604;23;20015;-84
2021/01/28 09:57:50;;;;;;;8.00;4.28;;;10.70;41.10;;;;;;6098169;23;20010;-83
2021/01/28 10:00:21;;;;;;;5.35;3.85;;;11.10;40.50;;;;;;6095846;23;20411;-84
2021/01/28 10:02:49;;;;;;;;;;;10.80;39.60;;;;;;6097238;23;20003;-86
2021/01/28 10:05:18;;;;;;;6.40;3.90;;;10.70;40.00;;;;;;6095608;23;19952;-84
2021/01/28 10:07:45;;;;;;;6.68;3.30;;;11.00;41.00;;;;;;6094178;23;20133;-81
2021/01/28 10:10:11;;;;;;;4.93;3.58;;;11.20;40.90;;;;;;6094849;23;20009;-80
2021/01/28 10:12:37;;;;;;;5.57;3.40;;;11.40;39.60;;;;;;6094691;23;20017;-79
2021/01/28 10:15:05;;;;;;;7.28;3.80;;;11.30;39.70;;;;;;6124847;23;20018;-81
2021/01/28 10:17:30;;;;;;;6.05;3.90;;;11.50;40.00;;;;;;6124092;23;20016;-80
2021/01/28 10:19:56;;;;;;;5.18;3.47;;;11.60;40.50;;;;;;6125806;23;20002;-85
2021/01/28 10:22:25;;;;;;;6.47;4.10;;;11.90;39.00;;;;;;6128187;23;20332;-81
2021/01/28 10:24:51;;;;;;;5.05;3.40;;;11.90;39.70;;;;;;6127163;23;20080;-83
2021/01/28 10:27:17;;;;;;;7.20;3.78;;;11.40;38.40;;;;;;6101716;23;20006;-82
2021/01/28 10:29:44;;;;;;;5.70;3.75;;;11.20;39.70;;;;;;6099085;23;20020;-84
2021/01/28 10:32:16;;;;;;;6.18;3.95;;;12.10;39.80;;;;;;6099839;23;20009;-83
2021/01/28 10:34:42;;;;;;;5.75;3.50;;;11.70;39.30;;;;;;6101742;23;20014;-82
2021/01/28 10:37:10;;;;;;;4.68;3.30;;;9.30;39.40;;;;;;6128061;23;20424;-85
2021/01/28 10:39:36;;;;;;;4.10;3.03;;;10.50;39.90;;;;;;6129596;23;20084;-80
2021/01/28 10:42:02;;;;;;;3.92;2.80;;;9.10;39.90;;;;;;6125585;23;20030;-80
2021/01/28 10:44:28;;;;;;;5.97;3.20;;;9.00;40.20;;;;;;6129120;23;20002;-83
2021/01/28 10:46:55;;;;;;;5.53;3.10;;;10.50;40.10;;;;;;6127930;23;20365;-83
2021/01/28 10:49:21;;;;;;;3.75;2.75;;;11.10;39.40;;;;;;6095205;23;20046;-81
2021/01/28 10:54:25;;;;;;;4.65;3.45;;;11.00;37.90;;;;;;6124754;23;20030;-88
2021/01/28 10:56:52;;;;;;;4.55;3.08;;;10.10;38.40;;;;;;6128949;23;20293;-84
2021/01/28 10:59:18;;;;;;;4.30;3.17;;;10.50;39.00;;;;;;6129063;23;20026;-82
2021/01/28 11:07:44;;;;;;;4.63;2.90;;;10.30;38.50;;;;;;6156418;23;20017;-80
2021/01/28 11:10:14;;;;;;;6.35;3.38;;;10.80;38.50;;;;;;6156438;23;20006;-83
2021/01/28 11:12:40;;;;;;;5.68;3.47;;;10.80;39.20;;;;;;6156826;23;20044;-83
2021/01/28 11:15:06;;;;;;;4.25;3.20;;;8.80;40.40;;;;;;6130823;23;20014;-81
2021/01/28 11:17:32;;;;;;;7.03;3.45;;;9.40;40.10;;;;;;6134604;23;20001;-81
2021/01/28 11:20:01;;;;;;;4.57;3.25;;;10.20;39.50;;;;;;6134605;23;20012;-82
2021/01/28 11:22:26;;;;;;;5.45;3.55;;;10.30;39.20;;;;;;6159693;23;20017;-85
2021/01/28 11:24:54;;;;;;;5.38;3.60;;;10.50;38.80;;;;;;6131178;23;20017;-82
2021/01/28 11:27:23;;;;;;;5.60;3.72;;;10.70;38.60;;;;;;6130971;23;20711;-85
2021/01/28 11:29:50;;;;;;;5.75;3.85;;;11.10;38.60;;;;;;6131950;23;20009;-87
2021/01/28 11:32:16;;;;;;;4.72;3.60;;;11.60;38.90;;;;;;6160089;23;19997;-85
2021/01/28 11:34:42;;;;;;;6.95;3.97;;;11.90;37.80;;;;;;6156156;23;20009;-85
2021/01/28 11:37:08;;;;;;;6.05;3.67;;;11.60;38.20;;;;;;6184238;23;20012;-81
2021/01/28 11:39:34;;;;;;;4.75;3.38;;;9.70;39.70;;;;;;6190252;23;20005;-85
2021/01/28 11:42:00;;;;;;;5.72;4.07;;;9.60;39.10;;;;;;6192510;23;19997;-86
2021/01/28 11:44:26;;;;;;;5.82;3.83;;;10.40;40.10;;;;;;6192458;23;20008;-87
2021/01/28 11:46:53;;;;;;;4.70;3.40;;;11.40;39.10;;;;;;6189000;23;20001;-87
2021/01/28 11:49:39;;;;;;;5.88;4.03;;;11.30;38.00;;;;;;6167002;23;20009;-86
2021/01/28 11:52:05;;;;;;;4.85;3.67;;;10.30;38.40;;;;;;6167995;23;20020;-88
2021/01/28 11:54:31;;;;;;;5.00;3.42;;;9.90;39.30;;;;;;6166887;23;20021;-83
2021/01/28 11:56:57;;;;;;;7.10;3.60;;;10.00;39.00;;;;;;6193028;23;20092;-83
2021/01/28 11:59:22;;;;;;;5.43;3.42;;;9.80;40.40;;;;;;6166297;23;20343;-81
2021/01/28 12:01:48;;;;;;;5.78;3.88;;;10.40;40.10;;;;;;6166897;23;20005;-85
2021/01/28 12:04:15;;;;;;;7.45;3.75;;;11.00;39.70;;;;;;6166550;23;20008;-81
2021/01/28 12:06:41;;;;;;;7.45;3.65;;;12.00;38.50;;;;;;6165736;23;20035;-86
2021/01/28 12:09:07;;;;;;;5.75;3.58;;;11.60;37.40;;;;;;6164504;23;20052;-81
2021/01/28 12:11:33;;;;;;;4.90;3.83;;;11.80;37.20;;;;;;6192149;23;19996;-86
2021/01/28 12:13:59;;;;;;;7.63;3.13;;;10.30;35.90;;;;;;6165053;23;20072;-87
2021/01/28 12:16:24;;;;;;;5.15;3.58;;;11.20;38.40;;;;;;6166120;23;20040;-84
2021/01/28 12:18:50;;;;;;;5.45;3.45;;;12.30;37.30;;;;;;6167065;23;20148;-85
2021/01/28 12:21:16;;;;;;;9.45;3.70;;;11.60;36.30;;;;;;6166966;23;20024;-85
2021/01/28 12:23:42;;;;;;;5.78;3.55;;;12.70;36.70;;;;;;6191864;23;20011;-87
2021/01/28 12:26:08;;;;;;;5.75;3.50;;;11.80;35.50;;;;;;6164093;23;20005;-88
2021/01/28 12:28:34;;;;;;;4.28;3.03;;;12.40;35.80;;;;;;6190618;23;20008;-85
2021/01/28 12:31:00;;;;;;;4.68;3.45;;;12.80;35.00;;;;;;6190967;23;20005;-86
2021/01/28 12:33:25;;;;;;;7.18;3.70;;;10.50;36.20;;;;;;6190486;23;19997;-89
2021/01/28 12:35:54;;;;;;;6.88;3.97;;;12.00;36.90;;;;;;6189656;23;20017;-88
2021/01/28 12:38:20;;;;;;;7.20;4.13;;;11.70;35.00;;;;;;6187159;23;20025;-87
2021/01/28 12:40:45;;;;;;;6.30;4.35;;;10.80;37.40;;;;;;6189534;23;20008;-83
2021/01/28 12:43:11;;;;;;;5.85;3.72;;;10.80;37.20;;;;;;6163298;23;20080;-82
2021/01/28 12:45:37;;;;;;;6.32;3.78;;;11.30;36.60;;;;;;6187976;23;20474;-85
2021/01/28 12:48:04;;;;;;;6.38;3.55;;;11.10;37.20;;;;;;6165127;23;20348;-83
2021/01/28 12:50:29;;;;;;;5.65;3.80;;;12.20;36.90;;;;;;6162607;23;20438;-87
2021/01/28 12:53:07;;;;;;;6.25;3.90;;;13.00;35.80;;;;;;6189539;23;19997;-85
2021/01/28 12:55:33;;;;;;;5.28;3.55;;;13.20;34.80;;;;;;6187648;23;20035;-83
2021/01/28 12:57:58;;;;;;;7.68;3.75;;;13.40;35.00;;;;;;6163467;23;20367;-89
2021/01/28 13:00:24;;;;;;;5.15;3.80;;;13.20;34.20;;;;;;6187583;23;20488;-87
2021/01/28 13:02:50;;;;;;;6.40;3.80;;;12.70;34.70;;;;;;6188581;23;20091;-87
2021/01/28 13:05:17;;;;;;;5.72;3.50;;;11.60;34.90;;;;;;6161801;23;20347;-85
2021/01/28 13:07:42;;;;;;;5.15;3.40;;;11.00;35.90;;;;;;6137535;23;20057;-91
2021/01/28 13:10:16;;;;;;;4.93;3.10;;;14.80;34.50;;;;;;6134643;23;20006;-93
2021/01/28 13:12:42;;;;;;;4.95;3.20;;;17.40;30.70;;;;;;6134684;23;20097;-90
2021/01/28 13:15:16;;;;;;;4.40;2.95;;;20.30;28.90;;;;;;6138799;23;20010;-89
2021/01/28 13:17:42;;;;;;;5.13;2.70;;;22.10;28.10;;;;;;6131336;23;20018;-87
2021/01/28 13:20:08;;;;;;;7.35;3.00;;;23.20;27.40;;;;;;6131935;23;20336;-91
2021/01/28 13:22:34;;;;;;;5.15;3.10;;;21.70;27.80;;;;;;6130547;23;20040;-86
2021/01/28 13:25:00;;;;;;;6.65;3.50;;;22.00;26.70;;;;;;6131119;23;20343;-91
2021/01/28 13:27:26;;;;;;;6.13;3.10;;;22.10;26.80;;;;;;6133318;23;20002;-87